sensor_id;sensor_type;location;lat;lon;timestamp;P1;durP1;ratioP1;P2;durP2;ratioP2
53034;SDS011;38923;53.236;6.506;2022-10-16T00:01:35;6.88;;;1.75;;
53034;SDS011;38923;53.236;6.506;2022-10-16T00:04:01;9.77;;;2.20;;
53034;SDS011;38923;53.236;6.506;2022-10-16T00:06:27;6.43;;;1.85;;
53034;SDS011;38923;53.236;6.506;2022-10-16T00:08:54;9.63;;;2.58;;
53034;SDS011;38923;53.236;6.506;2022-10-16T00:11:24;12.07;;;2.10;;
53034;SDS011;38923;53.236;6.506;2022-10-16T00:13:54;8.02;;;2.00;;
53034;SDS011;38923;53.236;6.506;2022-10-16T00:16:22;12.02;;;2.10;;
53034;SDS011;38923;53.236;6.506;2022-10-16T00:18:48;8.68;;;2.15;;
53034;SDS011;38923;53.236;6.506;2022-10-16T00:21:15;10.18;;;2.15;;
53034;SDS011;38923;53.236;6.506;2022-10-16T00:23:43;3.40;;;1.60;;
53034;SDS011;38923;53.236;6.506;2022-10-16T00:26:10;8.55;;;1.80;;
53034;SDS011;38923;53.236;6.506;2022-10-16T00:28:41;5.82;;;2.00;;
53034;SDS011;38923;53.236;6.506;2022-10-16T00:31:08;5.32;;;1.80;;
53034;SDS011;38923;53.236;6.506;2022-10-16T00:33:35;6.53;;;2.35;;
53034;SDS011;38923;53.236;6.506;2022-10-16T00:36:02;8.23;;;2.28;;
53034;SDS011;38923;53.236;6.506;2022-10-16T00:38:29;8.70;;;2.10;;
53034;SDS011;38923;53.236;6.506;2022-10-16T00:40:55;5.85;;;1.80;;
53034;SDS011;38923;53.236;6.506;2022-10-16T00:43:37;5.85;;;2.55;;
53034;SDS011;38923;53.236;6.506;2022-10-16T00:46:08;6.47;;;2.47;;
53034;SDS011;38923;53.236;6.506;2022-10-16T00:48:41;8.75;;;3.15;;
53034;SDS011;38923;53.236;6.506;2022-10-16T00:51:10;7.13;;;3.38;;
53034;SDS011;38923;53.236;6.506;2022-10-16T00:53:36;8.40;;;3.33;;
53034;SDS011;38923;53.236;6.506;2022-10-16T00:56:02;10.45;;;4.65;;
53034;SDS011;38923;53.236;6.506;2022-10-16T00:58:28;15.52;;;4.18;;
53034;SDS011;38923;53.236;6.506;2022-10-16T01:00:54;6.53;;;2.45;;
53034;SDS011;38923;53.236;6.506;2022-10-16T01:03:24;7.40;;;2.70;;
53034;SDS011;38923;53.236;6.506;2022-10-16T01:06:05;7.95;;;3.47;;
53034;SDS011;38923;53.236;6.506;2022-10-16T01:11:36;9.13;;;3.30;;
53034;SDS011;38923;53.236;6.506;2022-10-16T01:14:21;8.77;;;2.95;;
53034;SDS011;38923;53.236;6.506;2022-10-16T01:17:03;5.90;;;2.20;;
53034;SDS011;38923;53.236;6.506;2022-10-16T01:22:44;6.55;;;1.80;;
53034;SDS011;38923;53.236;6.506;2022-10-16T01:25:16;8.60;;;1.75;;
53034;SDS011;38923;53.236;6.506;2022-10-16T01:27:50;7.18;;;1.75;;
53034;SDS011;38923;53.236;6.506;2022-10-16T01:30:18;4.90;;;1.90;;
53034;SDS011;38923;53.236;6.506;2022-10-16T01:32:52;9.45;;;2.03;;
53034;SDS011;38923;53.236;6.506;2022-10-16T01:35:41;9.30;;;2.30;;
53034;SDS011;38923;53.236;6.506;2022-10-16T01:38:31;6.30;;;3.15;;
53034;SDS011;38923;53.236;6.506;2022-10-16T01:41:07;8.20;;;4.18;;
53034;SDS011;38923;53.236;6.506;2022-10-16T01:43:43;8.93;;;4.88;;
53034;SDS011;38923;53.236;6.506;2022-10-16T01:46:13;6.72;;;3.65;;
53034;SDS011;38923;53.236;6.506;2022-10-16T01:48:43;9.13;;;3.03;;
53034;SDS011;38923;53.236;6.506;2022-10-16T01:51:09;4.43;;;1.67;;
53034;SDS011;38923;53.236;6.506;2022-10-16T01:53:38;4.88;;;2.47;;
53034;SDS011;38923;53.236;6.506;2022-10-16T01:56:08;4.40;;;2.00;;
53034;SDS011;38923;53.236;6.506;2022-10-16T01:58:37;6.72;;;2.03;;
53034;SDS011;38923;53.236;6.506;2022-10-16T02:01:08;7.35;;;1.67;;
53034;SDS011;38923;53.236;6.506;2022-10-16T02:03:39;4.60;;;1.67;;
53034;SDS011;38923;53.236;6.506;2022-10-16T02:06:08;6.45;;;1.60;;
53034;SDS011;38923;53.236;6.506;2022-10-16T02:08:34;6.65;;;1.92;;
53034;SDS011;38923;53.236;6.506;2022-10-16T02:11:01;5.90;;;2.55;;
53034;SDS011;38923;53.236;6.506;2022-10-16T02:15:56;5.45;;;2.03;;
53034;SDS011;38923;53.236;6.506;2022-10-16T02:18:22;6.20;;;2.70;;
53034;SDS011;38923;53.236;6.506;2022-10-16T02:23:14;6.60;;;2.15;;
53034;SDS011;38923;53.236;6.506;2022-10-16T02:25:54;11.77;;;2.40;;
53034;SDS011;38923;53.236;6.506;2022-10-16T02:28:25;10.38;;;1.67;;
53034;SDS011;38923;53.236;6.506;2022-10-16T02:31:00;8.10;;;1.65;;
53034;SDS011;38923;53.236;6.506;2022-10-16T02:33:33;3.55;;;1.27;;
53034;SDS011;38923;53.236;6.506;2022-10-16T02:36:01;5.53;;;1.60;;
53034;SDS011;38923;53.236;6.506;2022-10-16T02:38:27;8.60;;;1.90;;
53034;SDS011;38923;53.236;6.506;2022-10-16T02:40:55;6.30;;;1.90;;
53034;SDS011;38923;53.236;6.506;2022-10-16T02:43:21;6.78;;;2.35;;
53034;SDS011;38923;53.236;6.506;2022-10-16T02:45:47;5.43;;;1.67;;
53034;SDS011;38923;53.236;6.506;2022-10-16T02:48:13;5.57;;;2.00;;
53034;SDS011;38923;53.236;6.506;2022-10-16T02:50:38;6.40;;;1.90;;
53034;SDS011;38923;53.236;6.506;2022-10-16T02:53:04;6.07;;;1.83;;
53034;SDS011;38923;53.236;6.506;2022-10-16T02:55:30;5.63;;;1.48;;
53034;SDS011;38923;53.236;6.506;2022-10-16T02:57:55;5.25;;;1.50;;
53034;SDS011;38923;53.236;6.506;2022-10-16T03:00:22;2.25;;;1.08;;
53034;SDS011;38923;53.236;6.506;2022-10-16T03:02:47;9.60;;;1.58;;
53034;SDS011;38923;53.236;6.506;2022-10-16T03:05:13;4.05;;;1.20;;
53034;SDS011;38923;53.236;6.506;2022-10-16T03:07:39;5.28;;;1.50;;
53034;SDS011;38923;53.236;6.506;2022-10-16T03:10:05;4.80;;;1.45;;
53034;SDS011;38923;53.236;6.506;2022-10-16T03:12:31;2.65;;;1.13;;
53034;SDS011;38923;53.236;6.506;2022-10-16T03:14:57;7.00;;;1.25;;
53034;SDS011;38923;53.236;6.506;2022-10-16T03:17:23;5.47;;;1.23;;
53034;SDS011;38923;53.236;6.506;2022-10-16T03:19:49;9.63;;;2.45;;
53034;SDS011;38923;53.236;6.506;2022-10-16T03:22:15;4.50;;;1.17;;
53034;SDS011;38923;53.236;6.506;2022-10-16T03:24:41;4.20;;;1.42;;
53034;SDS011;38923;53.236;6.506;2022-10-16T03:27:06;4.63;;;1.25;;
53034;SDS011;38923;53.236;6.506;2022-10-16T03:29:32;6.15;;;1.75;;
53034;SDS011;38923;53.236;6.506;2022-10-16T03:31:58;5.57;;;2.38;;
53034;SDS011;38923;53.236;6.506;2022-10-16T03:34:24;8.18;;;2.05;;
53034;SDS011;38923;53.236;6.506;2022-10-16T03:36:50;5.95;;;1.92;;
53034;SDS011;38923;53.236;6.506;2022-10-16T03:39:16;8.05;;;2.08;;
53034;SDS011;38923;53.236;6.506;2022-10-16T03:41:42;9.30;;;2.05;;
53034;SDS011;38923;53.236;6.506;2022-10-16T03:44:08;13.75;;;3.50;;
53034;SDS011;38923;53.236;6.506;2022-10-16T03:46:34;11.20;;;3.15;;
53034;SDS011;38923;53.236;6.506;2022-10-16T03:48:59;6.88;;;2.50;;
53034;SDS011;38923;53.236;6.506;2022-10-16T03:51:25;14.43;;;5.95;;
53034;SDS011;38923;53.236;6.506;2022-10-16T03:53:51;5.68;;;2.78;;
53034;SDS011;38923;53.236;6.506;2022-10-16T03:56:17;6.10;;;3.42;;
53034;SDS011;38923;53.236;6.506;2022-10-16T03:58:42;8.20;;;3.53;;
53034;SDS011;38923;53.236;6.506;2022-10-16T04:01:08;8.90;;;4.15;;
53034;SDS011;38923;53.236;6.506;2022-10-16T04:03:34;10.63;;;3.67;;
53034;SDS011;38923;53.236;6.506;2022-10-16T04:05:59;6.32;;;2.25;;
53034;SDS011;38923;53.236;6.506;2022-10-16T04:08:25;6.97;;;2.58;;
53034;SDS011;38923;53.236;6.506;2022-10-16T04:10:51;6.00;;;1.83;;
53034;SDS011;38923;53.236;6.506;2022-10-16T04:13:17;5.80;;;2.45;;
53034;SDS011;38923;53.236;6.506;2022-10-16T04:15:43;5.03;;;2.90;;
53034;SDS011;38923;53.236;6.506;2022-10-16T04:18:10;10.15;;;2.40;;
53034;SDS011;38923;53.236;6.506;2022-10-16T04:20:36;4.93;;;2.10;;
53034;SDS011;38923;53.236;6.506;2022-10-16T04:23:01;6.35;;;1.90;;
53034;SDS011;38923;53.236;6.506;2022-10-16T04:25:27;5.45;;;1.77;;
53034;SDS011;38923;53.236;6.506;2022-10-16T04:27:53;6.97;;;2.13;;
53034;SDS011;38923;53.236;6.506;2022-10-16T04:30:20;4.88;;;1.38;;
53034;SDS011;38923;53.236;6.506;2022-10-16T04:32:50;5.55;;;1.90;;
53034;SDS011;38923;53.236;6.506;2022-10-16T04:35:17;4.05;;;1.35;;
53034;SDS011;38923;53.236;6.506;2022-10-16T04:37:43;5.47;;;1.33;;
53034;SDS011;38923;53.236;6.506;2022-10-16T04:40:09;5.68;;;1.60;;
53034;SDS011;38923;53.236;6.506;2022-10-16T04:42:35;5.47;;;1.48;;
53034;SDS011;38923;53.236;6.506;2022-10-16T04:45:01;5.10;;;1.50;;
53034;SDS011;38923;53.236;6.506;2022-10-16T04:47:27;7.47;;;1.63;;
53034;SDS011;38923;53.236;6.506;2022-10-16T04:49:52;4.70;;;1.63;;
53034;SDS011;38923;53.236;6.506;2022-10-16T04:52:18;5.28;;;1.52;;
53034;SDS011;38923;53.236;6.506;2022-10-16T04:54:46;3.85;;;1.50;;
53034;SDS011;38923;53.236;6.506;2022-10-16T04:57:12;5.95;;;1.60;;
53034;SDS011;38923;53.236;6.506;2022-10-16T04:59:37;5.07;;;1.63;;
53034;SDS011;38923;53.236;6.506;2022-10-16T05:02:03;7.57;;;1.90;;
53034;SDS011;38923;53.236;6.506;2022-10-16T05:04:29;9.00;;;1.75;;
53034;SDS011;38923;53.236;6.506;2022-10-16T05:06:54;3.78;;;1.50;;
53034;SDS011;38923;53.236;6.506;2022-10-16T05:09:20;6.07;;;1.80;;
53034;SDS011;38923;53.236;6.506;2022-10-16T05:11:46;5.53;;;1.85;;
53034;SDS011;38923;53.236;6.506;2022-10-16T05:14:12;4.85;;;1.70;;
53034;SDS011;38923;53.236;6.506;2022-10-16T05:16:37;6.97;;;1.80;;
53034;SDS011;38923;53.236;6.506;2022-10-16T05:19:03;9.68;;;1.67;;
53034;SDS011;38923;53.236;6.506;2022-10-16T05:21:29;5.40;;;1.70;;
53034;SDS011;38923;53.236;6.506;2022-10-16T05:23:54;3.58;;;1.60;;
53034;SDS011;38923;53.236;6.506;2022-10-16T05:26:20;6.38;;;1.50;;
53034;SDS011;38923;53.236;6.506;2022-10-16T05:28:46;6.72;;;2.13;;
53034;SDS011;38923;53.236;6.506;2022-10-16T05:31:12;6.93;;;3.03;;
53034;SDS011;38923;53.236;6.506;2022-10-16T05:33:38;8.02;;;5.18;;
53034;SDS011;38923;53.236;6.506;2022-10-16T05:36:05;10.85;;;8.20;;
53034;SDS011;38923;53.236;6.506;2022-10-16T05:38:32;13.35;;;8.48;;
53034;SDS011;38923;53.236;6.506;2022-10-16T05:40:59;11.60;;;7.55;;
53034;SDS011;38923;53.236;6.506;2022-10-16T05:43:26;10.02;;;6.18;;
53034;SDS011;38923;53.236;6.506;2022-10-16T05:46:00;11.38;;;5.57;;
53034;SDS011;38923;53.236;6.506;2022-10-16T05:48:28;9.18;;;5.43;;
53034;SDS011;38923;53.236;6.506;2022-10-16T05:51:01;11.98;;;6.35;;
53034;SDS011;38923;53.236;6.506;2022-10-16T05:53:29;5.88;;;4.30;;
53034;SDS011;38923;53.236;6.506;2022-10-16T05:55:56;5.88;;;3.20;;
53034;SDS011;38923;53.236;6.506;2022-10-16T05:58:23;9.93;;;3.83;;
53034;SDS011;38923;53.236;6.506;2022-10-16T06:00:55;6.88;;;3.00;;
53034;SDS011;38923;53.236;6.506;2022-10-16T06:03:22;6.00;;;2.80;;
53034;SDS011;38923;53.236;6.506;2022-10-16T06:05:49;8.27;;;3.78;;
53034;SDS011;38923;53.236;6.506;2022-10-16T06:08:15;7.20;;;2.90;;
53034;SDS011;38923;53.236;6.506;2022-10-16T06:10:42;7.93;;;2.80;;
53034;SDS011;38923;53.236;6.506;2022-10-16T06:13:09;4.65;;;2.63;;
53034;SDS011;38923;53.236;6.506;2022-10-16T06:15:35;11.90;;;2.67;;
53034;SDS011;38923;53.236;6.506;2022-10-16T06:18:00;5.93;;;2.45;;
53034;SDS011;38923;53.236;6.506;2022-10-16T06:20:26;8.35;;;2.63;;
53034;SDS011;38923;53.236;6.506;2022-10-16T06:22:52;5.10;;;2.83;;
53034;SDS011;38923;53.236;6.506;2022-10-16T06:25:17;6.18;;;2.78;;
53034;SDS011;38923;53.236;6.506;2022-10-16T06:27:43;6.72;;;2.50;;
53034;SDS011;38923;53.236;6.506;2022-10-16T06:30:09;6.78;;;2.42;;
53034;SDS011;38923;53.236;6.506;2022-10-16T06:32:35;10.32;;;3.30;;
53034;SDS011;38923;53.236;6.506;2022-10-16T06:35:01;7.53;;;3.00;;
53034;SDS011;38923;53.236;6.506;2022-10-16T06:37:26;5.70;;;3.05;;
53034;SDS011;38923;53.236;6.506;2022-10-16T06:39:52;5.53;;;3.53;;
53034;SDS011;38923;53.236;6.506;2022-10-16T06:42:18;6.72;;;3.30;;
53034;SDS011;38923;53.236;6.506;2022-10-16T06:44:44;8.43;;;2.90;;
53034;SDS011;38923;53.236;6.506;2022-10-16T06:47:10;9.48;;;2.47;;
53034;SDS011;38923;53.236;6.506;2022-10-16T06:49:36;5.03;;;2.13;;
53034;SDS011;38923;53.236;6.506;2022-10-16T06:52:02;5.25;;;2.60;;
53034;SDS011;38923;53.236;6.506;2022-10-16T06:54:28;9.77;;;2.90;;
53034;SDS011;38923;53.236;6.506;2022-10-16T06:56:54;5.53;;;2.30;;
53034;SDS011;38923;53.236;6.506;2022-10-16T06:59:20;5.95;;;2.00;;
53034;SDS011;38923;53.236;6.506;2022-10-16T07:01:47;7.40;;;2.58;;
53034;SDS011;38923;53.236;6.506;2022-10-16T07:04:13;6.15;;;1.83;;
53034;SDS011;38923;53.236;6.506;2022-10-16T07:06:38;7.68;;;2.30;;
53034;SDS011;38923;53.236;6.506;2022-10-16T07:09:05;5.70;;;2.25;;
53034;SDS011;38923;53.236;6.506;2022-10-16T07:11:32;4.43;;;1.90;;
53034;SDS011;38923;53.236;6.506;2022-10-16T07:13:58;6.22;;;1.98;;
53034;SDS011;38923;53.236;6.506;2022-10-16T07:16:28;5.13;;;2.28;;
53034;SDS011;38923;53.236;6.506;2022-10-16T07:18:56;6.18;;;2.20;;
53034;SDS011;38923;53.236;6.506;2022-10-16T07:21:24;3.72;;;1.80;;
53034;SDS011;38923;53.236;6.506;2022-10-16T07:23:55;4.47;;;1.75;;
53034;SDS011;38923;53.236;6.506;2022-10-16T07:26:23;5.53;;;1.80;;
53034;SDS011;38923;53.236;6.506;2022-10-16T07:28:49;6.68;;;1.80;;
53034;SDS011;38923;53.236;6.506;2022-10-16T07:31:16;7.90;;;1.98;;
53034;SDS011;38923;53.236;6.506;2022-10-16T07:33:44;7.30;;;1.70;;
53034;SDS011;38923;53.236;6.506;2022-10-16T07:36:13;6.03;;;1.65;;
53034;SDS011;38923;53.236;6.506;2022-10-16T07:38:43;7.35;;;1.92;;
53034;SDS011;38923;53.236;6.506;2022-10-16T07:41:14;8.18;;;1.83;;
53034;SDS011;38923;53.236;6.506;2022-10-16T07:43:45;5.28;;;1.63;;
53034;SDS011;38923;53.236;6.506;2022-10-16T07:46:12;7.07;;;1.90;;
53034;SDS011;38923;53.236;6.506;2022-10-16T07:48:38;8.05;;;1.90;;
53034;SDS011;38923;53.236;6.506;2022-10-16T07:51:04;5.70;;;2.28;;
53034;SDS011;38923;53.236;6.506;2022-10-16T07:53:31;7.15;;;2.67;;
53034;SDS011;38923;53.236;6.506;2022-10-16T07:56:01;5.72;;;2.03;;
53034;SDS011;38923;53.236;6.506;2022-10-16T07:58:29;6.45;;;2.33;;
53034;SDS011;38923;53.236;6.506;2022-10-16T08:00:55;7.68;;;2.70;;
53034;SDS011;38923;53.236;6.506;2022-10-16T08:03:21;4.85;;;2.35;;
53034;SDS011;38923;53.236;6.506;2022-10-16T08:05:48;7.10;;;2.17;;
53034;SDS011;38923;53.236;6.506;2022-10-16T08:08:14;8.57;;;3.25;;
53034;SDS011;38923;53.236;6.506;2022-10-16T08:10:41;5.65;;;2.80;;
53034;SDS011;38923;53.236;6.506;2022-10-16T08:13:07;4.13;;;2.63;;
53034;SDS011;38923;53.236;6.506;2022-10-16T08:15:33;5.75;;;2.50;;
53034;SDS011;38923;53.236;6.506;2022-10-16T08:18:00;6.32;;;2.50;;
53034;SDS011;38923;53.236;6.506;2022-10-16T08:20:27;5.43;;;2.17;;
53034;SDS011;38923;53.236;6.506;2022-10-16T08:22:54;5.63;;;2.40;;
53034;SDS011;38923;53.236;6.506;2022-10-16T08:25:21;4.60;;;2.22;;
53034;SDS011;38923;53.236;6.506;2022-10-16T08:27:47;5.38;;;2.30;;
53034;SDS011;38923;53.236;6.506;2022-10-16T08:30:14;6.47;;;1.95;;
53034;SDS011;38923;53.236;6.506;2022-10-16T08:32:41;4.80;;;2.20;;
53034;SDS011;38923;53.236;6.506;2022-10-16T08:35:07;7.82;;;2.35;;
53034;SDS011;38923;53.236;6.506;2022-10-16T08:37:34;7.55;;;1.95;;
53034;SDS011;38923;53.236;6.506;2022-10-16T08:40:00;5.63;;;2.08;;
53034;SDS011;38923;53.236;6.506;2022-10-16T08:45:23;9.52;;;1.70;;
53034;SDS011;38923;53.236;6.506;2022-10-16T08:51:08;6.80;;;1.58;;
53034;SDS011;38923;53.236;6.506;2022-10-16T08:53:48;6.25;;;1.20;;
53034;SDS011;38923;53.236;6.506;2022-10-16T08:56:22;5.75;;;1.50;;
53034;SDS011;38923;53.236;6.506;2022-10-16T08:58:50;5.35;;;1.92;;
53034;SDS011;38923;53.236;6.506;2022-10-16T09:01:18;10.00;;;2.10;;
53034;SDS011;38923;53.236;6.506;2022-10-16T09:04:13;8.77;;;1.33;;
53034;SDS011;38923;53.236;6.506;2022-10-16T09:10:00;6.68;;;1.73;;
53034;SDS011;38923;53.236;6.506;2022-10-16T09:12:37;7.57;;;1.73;;
53034;SDS011;38923;53.236;6.506;2022-10-16T09:17:56;6.97;;;1.30;;
53034;SDS011;38923;53.236;6.506;2022-10-16T09:23:19;10.20;;;2.40;;
53034;SDS011;38923;53.236;6.506;2022-10-16T09:25:50;10.45;;;1.90;;
53034;SDS011;38923;53.236;6.506;2022-10-16T09:28:17;11.35;;;1.92;;
53034;SDS011;38923;53.236;6.506;2022-10-16T09:30:43;9.00;;;1.55;;
53034;SDS011;38923;53.236;6.506;2022-10-16T09:33:11;12.35;;;1.98;;
53034;SDS011;38923;53.236;6.506;2022-10-16T09:35:38;9.30;;;1.42;;
53034;SDS011;38923;53.236;6.506;2022-10-16T09:38:09;5.60;;;1.40;;
53034;SDS011;38923;53.236;6.506;2022-10-16T09:40:50;10.43;;;1.70;;
53034;SDS011;38923;53.236;6.506;2022-10-16T09:44:02;12.30;;;2.60;;
53034;SDS011;38923;53.236;6.506;2022-10-16T09:46:08;11.57;;;2.30;;
53034;SDS011;38923;53.236;6.506;2022-10-16T09:48:50;10.43;;;1.73;;
53034;SDS011;38923;53.236;6.506;2022-10-16T09:51:22;8.68;;;2.17;;
53034;SDS011;38923;53.236;6.506;2022-10-16T09:53:56;7.60;;;1.65;;
53034;SDS011;38923;53.236;6.506;2022-10-16T09:56:31;9.00;;;1.52;;
53034;SDS011;38923;53.236;6.506;2022-10-16T09:59:00;14.90;;;2.08;;
53034;SDS011;38923;53.236;6.506;2022-10-16T10:01:35;11.10;;;1.75;;
53034;SDS011;38923;53.236;6.506;2022-10-16T10:04:06;11.65;;;1.85;;
53034;SDS011;38923;53.236;6.506;2022-10-16T10:06:36;15.52;;;1.75;;
53034;SDS011;38923;53.236;6.506;2022-10-16T10:11:57;12.10;;;1.70;;
53034;SDS011;38923;53.236;6.506;2022-10-16T10:14:42;9.40;;;2.13;;
53034;SDS011;38923;53.236;6.506;2022-10-16T10:17:23;16.60;;;2.33;;
53034;SDS011;38923;53.236;6.506;2022-10-16T10:22:39;15.70;;;2.10;;
53034;SDS011;38923;53.236;6.506;2022-10-16T10:30:25;18.65;;;2.70;;
53034;SDS011;38923;53.236;6.506;2022-10-16T10:38:48;10.25;;;2.38;;
53034;SDS011;38923;53.236;6.506;2022-10-16T10:51:57;16.45;;;2.05;;
53034;SDS011;38923;53.236;6.506;2022-10-16T10:57:02;12.82;;;2.08;;
53034;SDS011;38923;53.236;6.506;2022-10-16T11:02:41;14.23;;;2.13;;
53034;SDS011;38923;53.236;6.506;2022-10-16T11:08:14;10.52;;;1.95;;
53034;SDS011;38923;53.236;6.506;2022-10-16T11:15:59;13.73;;;2.58;;
53034;SDS011;38923;53.236;6.506;2022-10-16T11:19:11;13.07;;;2.60;;
53034;SDS011;38923;53.236;6.506;2022-10-16T11:21:23;9.90;;;1.65;;
53034;SDS011;38923;53.236;6.506;2022-10-16T11:23:59;11.88;;;1.85;;
53034;SDS011;38923;53.236;6.506;2022-10-16T11:26:34;10.68;;;2.08;;
53034;SDS011;38923;53.236;6.506;2022-10-16T11:29:04;12.30;;;1.77;;
53034;SDS011;38923;53.236;6.506;2022-10-16T11:31:41;13.18;;;1.98;;
53034;SDS011;38923;53.236;6.506;2022-10-16T11:34:17;15.05;;;2.38;;
53034;SDS011;38923;53.236;6.506;2022-10-16T11:36:52;11.40;;;1.67;;
53034;SDS011;38923;53.236;6.506;2022-10-16T11:39:24;8.18;;;1.73;;
53034;SDS011;38923;53.236;6.506;2022-10-16T11:49:57;11.25;;;2.00;;
53034;SDS011;38923;53.236;6.506;2022-10-16T11:57:45;12.77;;;2.10;;
53034;SDS011;38923;53.236;6.506;2022-10-16T12:03:05;14.20;;;2.17;;
53034;SDS011;38923;53.236;6.506;2022-10-16T12:08:15;11.93;;;1.88;;
53034;SDS011;38923;53.236;6.506;2022-10-16T12:10:43;13.85;;;1.70;;
53034;SDS011;38923;53.236;6.506;2022-10-16T12:13:30;13.27;;;2.47;;
53034;SDS011;38923;53.236;6.506;2022-10-16T12:18:39;10.52;;;1.88;;
53034;SDS011;38923;53.236;6.506;2022-10-16T12:21:06;15.50;;;1.92;;
53034;SDS011;38923;53.236;6.506;2022-10-16T12:23:33;12.25;;;2.13;;
53034;SDS011;38923;53.236;6.506;2022-10-16T12:26:03;13.07;;;2.15;;
53034;SDS011;38923;53.236;6.506;2022-10-16T12:28:30;12.30;;;1.83;;
53034;SDS011;38923;53.236;6.506;2022-10-16T12:30:58;13.95;;;1.73;;
53034;SDS011;38923;53.236;6.506;2022-10-16T12:33:30;14.43;;;2.03;;
53034;SDS011;38923;53.236;6.506;2022-10-16T12:35:59;11.98;;;1.98;;
53034;SDS011;38923;53.236;6.506;2022-10-16T12:41:04;14.38;;;1.75;;
53034;SDS011;38923;53.236;6.506;2022-10-16T12:48:40;10.85;;;1.60;;
53034;SDS011;38923;53.236;6.506;2022-10-16T12:54:03;13.10;;;1.77;;
53034;SDS011;38923;53.236;6.506;2022-10-16T13:05:03;10.13;;;1.55;;
53034;SDS011;38923;53.236;6.506;2022-10-16T13:13:20;13.50;;;1.70;;
53034;SDS011;38923;53.236;6.506;2022-10-16T13:23:59;11.60;;;1.40;;
53034;SDS011;38923;53.236;6.506;2022-10-16T13:29:10;11.77;;;1.85;;
53034;SDS011;38923;53.236;6.506;2022-10-16T13:31:37;7.15;;;2.00;;
53034;SDS011;38923;53.236;6.506;2022-10-16T13:34:04;10.18;;;1.70;;
53034;SDS011;38923;53.236;6.506;2022-10-16T13:36:42;11.80;;;1.73;;
53034;SDS011;38923;53.236;6.506;2022-10-16T13:41:39;8.65;;;1.60;;
53034;SDS011;38923;53.236;6.506;2022-10-16T13:44:09;8.77;;;1.60;;
53034;SDS011;38923;53.236;6.506;2022-10-16T13:46:44;8.45;;;1.48;;
53034;SDS011;38923;53.236;6.506;2022-10-16T13:49:14;8.38;;;1.95;;
53034;SDS011;38923;53.236;6.506;2022-10-16T13:51:41;10.23;;;1.88;;
53034;SDS011;38923;53.236;6.506;2022-10-16T13:54:18;10.38;;;1.40;;
53034;SDS011;38923;53.236;6.506;2022-10-16T13:56:44;10.75;;;2.13;;
53034;SDS011;38923;53.236;6.506;2022-10-16T14:01:48;9.60;;;1.83;;
53034;SDS011;38923;53.236;6.506;2022-10-16T14:04:15;10.52;;;1.77;;
53034;SDS011;38923;53.236;6.506;2022-10-16T14:06:42;10.27;;;1.52;;
53034;SDS011;38923;53.236;6.506;2022-10-16T14:09:19;8.05;;;1.30;;
53034;SDS011;38923;53.236;6.506;2022-10-16T14:11:49;8.90;;;1.60;;
53034;SDS011;38923;53.236;6.506;2022-10-16T14:14:18;8.82;;;1.40;;
53034;SDS011;38923;53.236;6.506;2022-10-16T14:16:44;11.38;;;1.95;;
53034;SDS011;38923;53.236;6.506;2022-10-16T14:19:29;13.20;;;1.60;;
53034;SDS011;38923;53.236;6.506;2022-10-16T14:21:56;10.60;;;1.67;;
53034;SDS011;38923;53.236;6.506;2022-10-16T14:24:34;8.85;;;1.63;;
53034;SDS011;38923;53.236;6.506;2022-10-16T14:27:00;9.13;;;1.52;;
53034;SDS011;38923;53.236;6.506;2022-10-16T14:29:27;7.72;;;1.63;;
53034;SDS011;38923;53.236;6.506;2022-10-16T14:31:54;10.90;;;1.50;;
53034;SDS011;38923;53.236;6.506;2022-10-16T14:34:26;8.20;;;1.50;;
53034;SDS011;38923;53.236;6.506;2022-10-16T14:36:58;12.70;;;1.92;;
53034;SDS011;38923;53.236;6.506;2022-10-16T14:39:29;10.73;;;1.48;;
53034;SDS011;38923;53.236;6.506;2022-10-16T14:41:56;7.43;;;1.60;;
53034;SDS011;38923;53.236;6.506;2022-10-16T14:44:25;8.82;;;2.05;;
53034;SDS011;38923;53.236;6.506;2022-10-16T14:46:53;14.60;;;2.25;;
53034;SDS011;38923;53.236;6.506;2022-10-16T14:49:20;13.13;;;1.88;;
53034;SDS011;38923;53.236;6.506;2022-10-16T14:51:46;14.43;;;1.85;;
53034;SDS011;38923;53.236;6.506;2022-10-16T14:54:13;13.18;;;1.83;;
53034;SDS011;38923;53.236;6.506;2022-10-16T14:56:42;10.35;;;1.35;;
53034;SDS011;38923;53.236;6.506;2022-10-16T14:59:36;10.85;;;1.60;;
53034;SDS011;38923;53.236;6.506;2022-10-16T15:02:20;5.88;;;0.98;;
53034;SDS011;38923;53.236;6.506;2022-10-16T15:05:10;10.43;;;2.25;;
53034;SDS011;38923;53.236;6.506;2022-10-16T15:07:42;11.30;;;2.00;;
53034;SDS011;38923;53.236;6.506;2022-10-16T15:10:08;11.55;;;2.03;;
53034;SDS011;38923;53.236;6.506;2022-10-16T15:12:34;14.57;;;1.63;;
53034;SDS011;38923;53.236;6.506;2022-10-16T15:17:41;14.15;;;2.22;;
53034;SDS011;38923;53.236;6.506;2022-10-16T15:20:07;15.57;;;2.30;;
53034;SDS011;38923;53.236;6.506;2022-10-16T15:22:32;11.82;;;1.48;;
53034;SDS011;38923;53.236;6.506;2022-10-16T15:24:58;13.88;;;1.70;;
53034;SDS011;38923;53.236;6.506;2022-10-16T15:27:24;16.67;;;1.98;;
53034;SDS011;38923;53.236;6.506;2022-10-16T15:29:49;13.13;;;1.90;;
53034;SDS011;38923;53.236;6.506;2022-10-16T15:32:15;10.40;;;1.70;;
53034;SDS011;38923;53.236;6.506;2022-10-16T15:34:41;14.25;;;1.75;;
53034;SDS011;38923;53.236;6.506;2022-10-16T15:37:08;11.23;;;2.05;;
53034;SDS011;38923;53.236;6.506;2022-10-16T15:39:34;16.20;;;2.72;;
53034;SDS011;38923;53.236;6.506;2022-10-16T15:42:00;11.95;;;2.10;;
53034;SDS011;38923;53.236;6.506;2022-10-16T15:44:25;17.92;;;1.98;;
53034;SDS011;38923;53.236;6.506;2022-10-16T15:46:55;14.45;;;2.03;;
53034;SDS011;38923;53.236;6.506;2022-10-16T15:49:21;13.27;;;2.30;;
53034;SDS011;38923;53.236;6.506;2022-10-16T15:51:47;8.98;;;1.63;;
53034;SDS011;38923;53.236;6.506;2022-10-16T15:54:13;20.02;;;2.88;;
53034;SDS011;38923;53.236;6.506;2022-10-16T15:56:38;13.43;;;1.90;;
53034;SDS011;38923;53.236;6.506;2022-10-16T15:59:04;18.75;;;2.28;;
53034;SDS011;38923;53.236;6.506;2022-10-16T16:01:34;20.58;;;2.78;;
53034;SDS011;38923;53.236;6.506;2022-10-16T16:04:01;79.45;;;5.75;;
53034;SDS011;38923;53.236;6.506;2022-10-16T16:06:27;14.85;;;1.98;;
53034;SDS011;38923;53.236;6.506;2022-10-16T16:08:53;34.08;;;3.70;;
53034;SDS011;38923;53.236;6.506;2022-10-16T16:11:19;25.27;;;3.10;;
53034;SDS011;38923;53.236;6.506;2022-10-16T16:13:47;15.50;;;2.17;;
53034;SDS011;38923;53.236;6.506;2022-10-16T16:16:14;14.27;;;2.72;;
53034;SDS011;38923;53.236;6.506;2022-10-16T16:18:41;13.77;;;2.13;;
53034;SDS011;38923;53.236;6.506;2022-10-16T16:21:09;14.90;;;2.80;;
53034;SDS011;38923;53.236;6.506;2022-10-16T16:23:36;9.60;;;2.70;;
53034;SDS011;38923;53.236;6.506;2022-10-16T16:26:11;22.17;;;3.15;;
53034;SDS011;38923;53.236;6.506;2022-10-16T16:28:39;12.23;;;2.78;;
53034;SDS011;38923;53.236;6.506;2022-10-16T16:31:07;18.20;;;3.30;;
53034;SDS011;38923;53.236;6.506;2022-10-16T16:33:33;15.25;;;3.38;;
53034;SDS011;38923;53.236;6.506;2022-10-16T16:36:00;15.43;;;3.35;;
53034;SDS011;38923;53.236;6.506;2022-10-16T16:38:28;15.40;;;2.10;;
53034;SDS011;38923;53.236;6.506;2022-10-16T16:40:54;12.20;;;2.20;;
53034;SDS011;38923;53.236;6.506;2022-10-16T16:43:26;15.35;;;2.55;;
53034;SDS011;38923;53.236;6.506;2022-10-16T16:45:52;10.20;;;1.55;;
53034;SDS011;38923;53.236;6.506;2022-10-16T16:48:18;11.98;;;2.20;;
53034;SDS011;38923;53.236;6.506;2022-10-16T16:50:44;13.10;;;2.38;;
53034;SDS011;38923;53.236;6.506;2022-10-16T16:53:10;13.43;;;2.22;;
53034;SDS011;38923;53.236;6.506;2022-10-16T16:55:36;8.20;;;2.20;;
53034;SDS011;38923;53.236;6.506;2022-10-16T16:58:02;23.17;;;11.25;;
53034;SDS011;38923;53.236;6.506;2022-10-16T17:00:28;10.68;;;3.40;;
53034;SDS011;38923;53.236;6.506;2022-10-16T17:02:55;15.15;;;3.75;;
53034;SDS011;38923;53.236;6.506;2022-10-16T17:05:22;16.00;;;6.78;;